createdAt,value
2023-02-05T00:04:24.245Z,-24.76
2023-02-05T00:09:29.081Z,-24.93
2023-02-05T00:14:34.177Z,-24.89
2023-02-05T00:19:37.978Z,-24.81
2023-02-05T00:24:41.899Z,-24.91
2023-02-05T00:29:46.021Z,-25.00
2023-02-05T00:34:50.181Z,-25.07
2023-02-05T00:39:54.040Z,-25.12
2023-02-05T00:44:57.878Z,-25.15
2023-02-05T00:50:01.966Z,-25.17
2023-02-05T00:55:07.301Z,-25.18
2023-02-05T01:00:11.770Z,-25.19
2023-02-05T01:05:15.728Z,-25.26
2023-02-05T01:10:19.660Z,-25.34
2023-02-05T01:15:23.730Z,-25.43
2023-02-05T01:20:27.770Z,-25.49
2023-02-05T01:25:31.993Z,-25.55
2023-02-05T01:30:37.182Z,-25.45
2023-02-05T01:35:42.844Z,-25.32
2023-02-05T01:40:46.797Z,-25.25
2023-02-05T01:46:17.441Z,-25.43
2023-02-05T01:51:22.645Z,-25.48
2023-02-05T01:56:33.162Z,-25.40
2023-02-05T02:01:38.595Z,-25.41
2023-02-05T02:06:42.664Z,-25.56
2023-02-05T02:11:46.625Z,-25.70
2023-02-05T02:16:53.319Z,-25.80
2023-02-05T02:22:21.831Z,-25.84
2023-02-05T02:27:42.439Z,-25.89
2023-02-05T02:32:52.709Z,-25.88
2023-02-05T02:38:05.197Z,-25.79
2023-02-05T02:43:26.195Z,-25.70
2023-02-05T02:48:33.892Z,-25.79
2023-02-05T02:53:45.254Z,-25.41
2023-02-05T02:58:59.334Z,-25.22
2023-02-05T03:04:13.225Z,-24.97
2023-02-05T03:10:06.144Z,-24.74
2023-02-05T03:15:11.898Z,-24.58
2023-02-05T03:20:25.126Z,-24.44
2023-02-05T03:25:31.057Z,-24.18
2023-02-05T03:31:13.433Z,-23.90
2023-02-05T03:36:47.209Z,-23.60
2023-02-05T03:42:37.709Z,-23.36
2023-02-05T03:48:20.386Z,-23.10
2023-02-05T03:53:38.243Z,-22.84
2023-02-05T03:58:50.164Z,-22.56
2023-02-05T04:03:56.226Z,-22.31
2023-02-05T04:09:01.164Z,-22.11
2023-02-05T04:14:07.385Z,-21.84
2023-02-05T04:19:13.122Z,-21.73
2023-02-05T04:24:17.414Z,-21.31
2023-02-05T04:29:22.524Z,-21.24
2023-02-05T04:35:06.668Z,-20.84
2023-02-05T04:40:11.107Z,-20.55
2023-02-05T04:45:16.556Z,-20.26
2023-02-05T04:50:20.359Z,-20.07
2023-02-05T04:55:24.380Z,-19.93
2023-02-05T05:00:28.569Z,-19.74
2023-02-05T05:05:33.829Z,-19.41
2023-02-05T05:10:39.480Z,-19.27
2023-02-05T05:15:43.446Z,-19.09
2023-02-05T05:20:47.471Z,-18.91
2023-02-05T05:25:51.911Z,-18.77
2023-02-05T05:30:56.007Z,-19.06
2023-02-05T05:35:59.819Z,-18.48
2023-02-05T05:41:22.449Z,-18.33
2023-02-05T05:46:27.569Z,-18.19
2023-02-05T05:51:33.195Z,-17.92
2023-02-05T05:56:36.998Z,-17.97
2023-02-05T06:01:40.800Z,-17.51
2023-02-05T06:06:44.709Z,-17.33
2023-02-05T06:11:49.679Z,-17.17
2023-02-05T06:16:55.948Z,-16.95
2023-02-05T06:21:59.621Z,-16.77
2023-02-05T06:27:03.539Z,-17.00
2023-02-05T06:32:08.543Z,-16.42
2023-02-05T06:37:12.331Z,-16.40
2023-02-05T06:42:16.239Z,-16.11
2023-02-05T06:47:20.031Z,-16.48
2023-02-05T06:52:23.994Z,-15.81
2023-02-05T06:57:27.924Z,-15.64
2023-02-05T07:02:31.944Z,-15.48
2023-02-05T07:07:36.182Z,-15.34
2023-02-05T07:12:40.044Z,-15.18
2023-02-05T07:17:43.991Z,-15.03
2023-02-05T07:22:47.830Z,-14.87
2023-02-05T07:27:51.983Z,-14.72
2023-02-05T07:32:56.182Z,-14.61
2023-02-05T07:38:00.098Z,-14.84
2023-02-05T07:43:04.245Z,-14.34
2023-02-05T07:48:08.134Z,-14.21
2023-02-05T07:53:12.012Z,-14.10
2023-02-05T07:58:16.136Z,-14.13
2023-02-05T08:03:20.736Z,-13.89
2023-02-05T08:08:26.303Z,-13.80
2023-02-05T08:13:30.679Z,-13.72
2023-02-05T08:18:35.361Z,-13.64
2023-02-05T08:23:39.139Z,-13.29
2023-02-05T08:28:44.636Z,-13.40
2023-02-05T08:33:51.358Z,-13.32
2023-02-05T08:38:55.339Z,-13.23
2023-02-05T08:43:59.211Z,-13.27
2023-02-05T08:49:03.114Z,-13.29
2023-02-05T08:54:09.986Z,-13.36
2023-02-05T08:59:15.022Z,-13.44
2023-02-05T09:04:21.242Z,-13.54
2023-02-05T09:09:26.105Z,-13.59
2023-02-05T09:14:36.943Z,-13.68
2023-02-05T09:19:42.353Z,-13.65
2023-02-05T09:24:46.299Z,-13.65
2023-02-05T09:29:50.256Z,-13.62
2023-02-05T09:34:54.428Z,-13.57
2023-02-05T09:40:20.920Z,-13.51
2023-02-05T09:45:40.542Z,-13.47
2023-02-05T09:50:44.976Z,-13.48
2023-02-05T09:55:49.591Z,-13.46
2023-02-05T10:01:05.165Z,-13.38
2023-02-05T10:06:22.214Z,-13.37
2023-02-05T10:11:59.146Z,-13.43
2023-02-05T10:17:36.100Z,-13.46
2023-02-05T10:23:07.749Z,-13.51
2023-02-05T10:28:29.942Z,-13.53
2023-02-05T10:33:42.357Z,-13.67
2023-02-05T10:38:47.838Z,-13.78
2023-02-05T10:44:04.411Z,-13.91
2023-02-05T10:49:20.859Z,-14.14
2023-02-05T10:54:30.835Z,-14.25
2023-02-05T10:59:59.660Z,-14.43
2023-02-05T11:05:28.451Z,-14.62
2023-02-05T11:10:36.501Z,-14.82
2023-02-05T11:16:05.669Z,-15.02
2023-02-05T11:21:10.800Z,-15.22
2023-02-05T11:26:21.837Z,-15.32
2023-02-05T11:31:28.561Z,-15.45
2023-02-05T11:36:32.503Z,-15.63
2023-02-05T11:41:58.068Z,-15.81
2023-02-05T11:47:04.622Z,-15.91
2023-02-05T11:52:16.387Z,-15.99
2023-02-05T11:57:23.292Z,-16.08
2023-02-05T12:02:29.255Z,-16.28
2023-02-05T12:07:47.241Z,-16.56
2023-02-05T12:13:06.651Z,-16.89
2023-02-05T12:18:22.631Z,-17.02
2023-02-05T12:24:11.176Z,-17.04
2023-02-05T12:29:32.248Z,-17.15
2023-02-05T12:34:47.673Z,-17.30
2023-02-05T12:40:01.331Z,-17.44
2023-02-05T12:45:30.780Z,-17.74
2023-02-05T12:51:09.624Z,-18.46
2023-02-05T12:56:37.951Z,-18.17
2023-02-05T13:01:52.205Z,-18.31
2023-02-05T13:07:06.436Z,-18.48
2023-02-05T13:12:16.318Z,-18.83
2023-02-05T13:17:31.256Z,-18.83
2023-02-05T13:23:06.197Z,-18.91
2023-02-05T13:28:41.824Z,-18.99
2023-02-05T13:33:46.192Z,-18.97
2023-02-05T13:39:02.627Z,-19.22
2023-02-05T13:44:24.943Z,-19.41
2023-02-05T13:49:38.258Z,-19.39
2023-02-05T13:54:59.825Z,-19.50
2023-02-05T14:00:06.929Z,-19.58
2023-02-05T14:05:16.242Z,-19.78
2023-02-05T14:10:29.096Z,-19.94
2023-02-05T14:15:44.186Z,-20.04
2023-02-05T14:20:48.265Z,-20.07
2023-02-05T14:26:04.639Z,-20.16
2023-02-05T14:31:08.498Z,-20.26
2023-02-05T14:36:18.679Z,-20.44
2023-02-05T14:41:28.076Z,-20.71
2023-02-05T14:46:45.897Z,-20.87
2023-02-05T14:52:00.230Z,-21.54
2023-02-05T14:57:50.122Z,-20.99
2023-02-05T15:03:07.584Z,-20.94
2023-02-05T15:08:21.909Z,-20.99
2023-02-05T15:13:27.183Z,-21.13
2023-02-05T15:18:34.664Z,-21.28
2023-02-05T15:23:49.568Z,-21.37
2023-02-05T15:29:02.555Z,-21.47
2023-02-05T15:34:30.071Z,-21.78
2023-02-05T15:39:56.437Z,-21.72
2023-02-05T15:45:00.367Z,-21.73
2023-02-05T15:50:05.776Z,-21.92
2023-02-05T15:55:15.639Z,-21.80
2023-02-05T16:00:23.316Z,-22.40
2023-02-05T16:05:29.742Z,-21.85
2023-02-05T16:10:35.615Z,-21.94
2023-02-05T16:15:47.797Z,-22.07
2023-02-05T16:20:57.628Z,-22.26
2023-02-05T16:26:16.760Z,-22.24
2023-02-05T16:31:24.537Z,-22.36
2023-02-05T16:36:37.395Z,-22.45
2023-02-05T16:41:44.290Z,-22.45
2023-02-05T16:47:21.030Z,-22.45
2023-02-05T16:52:36.398Z,-22.54
2023-02-05T16:57:40.896Z,-22.66
2023-02-05T17:02:45.680Z,-23.38
2023-02-05T17:08:02.076Z,-23.34
2023-02-05T17:13:08.195Z,-22.87
2023-02-05T17:18:19.657Z,-22.94
2023-02-05T17:23:23.444Z,-22.97
2023-02-05T17:28:30.937Z,-23.00
2023-02-05T17:33:34.767Z,-22.92
2023-02-05T17:38:38.518Z,-22.82
2023-02-05T17:43:42.569Z,-22.67
2023-02-05T17:48:46.442Z,-22.69
2023-02-05T17:53:51.335Z,-22.79
2023-02-05T17:58:56.686Z,-22.88
2023-02-05T18:04:00.377Z,-22.95
2023-02-05T18:09:07.824Z,-23.06
2023-02-05T18:14:14.275Z,-23.22
2023-02-05T18:19:20.984Z,-24.01
2023-02-05T18:24:25.070Z,-23.41
2023-02-05T18:29:29.211Z,-23.42
2023-02-05T18:34:33.384Z,-23.54
2023-02-05T18:39:37.267Z,-23.63
2023-02-05T18:44:41.128Z,-23.68
2023-02-05T18:49:44.895Z,-23.70
2023-02-05T18:54:53.326Z,-23.71
2023-02-05T18:59:57.251Z,-24.32
2023-02-05T19:05:03.339Z,-23.87
2023-02-05T19:10:07.454Z,-24.07
2023-02-05T19:15:11.190Z,-23.88
2023-02-05T19:20:15.058Z,-23.95
2023-02-05T19:25:22.142Z,-23.96
2023-02-05T19:30:26.285Z,-24.03
2023-02-05T19:35:33.088Z,-24.32
2023-02-05T19:40:37.428Z,-24.24
2023-02-05T19:45:41.254Z,-24.37
2023-02-05T19:50:45.286Z,-24.42
2023-02-05T19:55:49.273Z,-24.51
2023-02-05T20:00:53.185Z,-24.62
2023-02-05T20:06:01.762Z,-24.69
2023-02-05T20:11:06.317Z,-24.70
2023-02-05T20:16:14.665Z,-24.62
2023-02-05T20:21:20.101Z,-24.45
2023-02-05T20:26:23.986Z,-24.29
2023-02-05T20:31:38.725Z,-24.34
2023-02-05T20:36:42.415Z,-24.47
2023-02-05T20:41:47.965Z,-24.58
2023-02-05T20:46:51.850Z,-24.66
2023-02-05T20:51:55.922Z,-24.81
2023-02-05T20:56:59.878Z,-24.85
2023-02-05T21:02:04.906Z,-24.92
2023-02-05T21:07:08.828Z,-24.80
2023-02-05T21:12:12.494Z,-25.39
2023-02-05T21:17:16.426Z,-24.73
2023-02-05T21:22:20.156Z,-24.76
2023-02-05T21:27:25.894Z,-24.90
2023-02-05T21:32:31.322Z,-25.01
2023-02-05T21:37:35.363Z,-25.09
2023-02-05T21:42:39.110Z,-25.06
2023-02-05T21:47:43.012Z,-25.13
2023-02-05T21:52:47.012Z,-25.05
2023-02-05T21:57:50.780Z,-25.31
2023-02-05T22:02:54.619Z,-25.10
2023-02-05T22:07:58.529Z,-25.09
2023-02-05T22:13:02.178Z,-25.24
2023-02-05T22:18:06.197Z,-25.20
2023-02-05T22:23:09.998Z,-25.11
2023-02-05T22:28:14.197Z,-25.47
2023-02-05T22:33:18.497Z,-25.33
2023-02-05T22:38:22.186Z,-25.34
2023-02-05T22:43:26.322Z,-25.38
2023-02-05T22:48:30.198Z,-25.39
2023-02-05T22:53:35.162Z,-25.50
2023-02-05T22:58:41.859Z,-25.49
2023-02-05T23:03:48.163Z,-25.37
2023-02-05T23:08:58.013Z,-25.28
2023-02-05T23:14:03.449Z,-25.32
2023-02-05T23:19:10.895Z,-25.41
2023-02-05T23:24:15.431Z,-25.52
2023-02-05T23:29:19.959Z,-25.49
2023-02-05T23:34:24.106Z,-25.44
2023-02-05T23:39:27.987Z,-25.48
2023-02-05T23:44:32.274Z,-25.49
2023-02-05T23:49:36.097Z,-25.66
2023-02-05T23:54:39.845Z,-25.72
2023-02-05T23:59:43.703Z,-25.97
